METAR Data
IDs: Format: Raw Decoded Include TAF

Data at: 0143 UTC 25 Feb 2021

LIRA 250120Z VRB02KT CAVOK 09/05 Q1031